Time;durP1;ratioP1;P1;durP2;ratioP2;P2;SDS_P1;SDS_P2;PMS_P1;PMS_P2;Temp;Humidity;BMP_temperature;BMP_pressure;BME280_temperature;BME280_humidity;BME280_pressure;Samples;Min_cycle;Max_cycle;Signal;HPM_P1;HPM_P2
2023/01/19 00:00:09;;;;;;;8.90;5.30;;;;;;;-128.00;-1.00;-1.00;101812;1257;1003859;-66
2023/01/19 00:02:37;;;;;;;7.90;4.50;;;;;;;-128.00;-1.00;-1.00;101832;1260;1013020;-65
2023/01/19 00:05:05;;;;;;;7.60;4.30;;;;;;;-128.00;-1.00;-1.00;101831;1253;1002619;-67
2023/01/19 00:07:32;;;;;;;8.70;4.30;;;;;;;-128.00;-1.00;-1.00;101884;1256;1002980;-66
2023/01/19 00:09:59;;;;;;;11.10;4.70;;;;;;;-128.00;-1.00;-1.00;101796;1253;1002771;-64
2023/01/19 00:12:26;;;;;;;10.60;3.80;;;;;;;-128.00;-1.00;-1.00;101860;1254;1003804;-65
2023/01/19 00:14:53;;;;;;;8.20;3.90;;;;;;;-128.00;-1.00;-1.00;101876;1253;1002915;-67
2023/01/19 00:17:20;;;;;;;7.40;3.40;;;;;;;-128.00;-1.00;-1.00;101781;1254;1002761;-67
2023/01/19 00:19:47;;;;;;;5.60;3.40;;;;;;;-128.00;-1.00;-1.00;101785;1254;1004390;-64
2023/01/19 00:22:14;;;;;;;8.60;4.40;;;;;;;-128.00;-1.00;-1.00;101888;1254;1002954;-64
2023/01/19 00:24:41;;;;;;;7.20;3.80;;;;;;;-128.00;-1.00;-1.00;101827;1257;1002887;-68
2023/01/19 00:27:08;;;;;;;7.90;3.70;;;;;;;-128.00;-1.00;-1.00;101889;1254;1003004;-66
2023/01/19 00:29:36;;;;;;;8.50;4.20;;;;;;;-128.00;-1.00;-1.00;101782;1254;1002205;-68
2023/01/19 00:32:04;;;;;;;11.00;4.00;;;;;;;-128.00;-1.00;-1.00;101849;1253;1002998;-66
2023/01/19 00:34:38;;;;;;;8.80;3.50;;;;;;;-128.00;-1.00;-1.00;101841;1252;1002706;-66
2023/01/19 00:37:06;;;;;;;8.50;3.90;;;;;;;-128.00;-1.00;-1.00;101805;1257;1010799;-64
2023/01/19 00:39:33;;;;;;;8.40;3.80;;;;;;;-128.00;-1.00;-1.00;101718;1259;1003305;-64
2023/01/19 00:44:45;;;;;;;8.30;3.50;;;;;;;-128.00;-1.00;-1.00;101862;1253;1013802;-68
2023/01/19 00:47:13;;;;;;;6.20;3.60;;;;;;;-128.00;-1.00;-1.00;101716;1253;1004108;-66
2023/01/19 00:49:40;;;;;;;7.40;3.20;;;;;;;-128.00;-1.00;-1.00;101799;1254;1004620;-64
2023/01/19 00:52:07;;;;;;;8.90;3.40;;;;;;;-128.00;-1.00;-1.00;101841;1254;1002903;-66
2023/01/19 00:54:34;;;;;;;10.00;3.10;;;;;;;-128.00;-1.00;-1.00;101797;1254;1004903;-67
2023/01/19 00:57:02;;;;;;;10.10;3.60;;;;;;;-128.00;-1.00;-1.00;101804;1256;1002940;-67
2023/01/19 00:59:29;;;;;;;;;;;;;;;-128.00;-1.00;-1.00;101764;1254;1003445;-66
2023/01/19 01:01:56;;;;;;;6.00;3.60;;;;;;;-128.00;-1.00;-1.00;101864;1256;1002528;-64
2023/01/19 01:04:23;;;;;;;6.30;3.10;;;;;;;-128.00;-1.00;-1.00;101855;1256;1002549;-66
2023/01/19 01:06:51;;;;;;;8.70;3.50;;;;;;;-128.00;-1.00;-1.00;101746;1254;1002495;-66
2023/01/19 01:09:18;;;;;;;5.20;3.00;;;;;;;-128.00;-1.00;-1.00;101757;1252;1002945;-63
2023/01/19 01:11:45;;;;;;;12.20;3.30;;;;;;;-128.00;-1.00;-1.00;101948;1254;1004452;-66
2023/01/19 01:14:12;;;;;;;5.90;2.90;;;;;;;-128.00;-1.00;-1.00;101998;1251;1003676;-65
2023/01/19 01:16:39;;;;;;;6.20;3.00;;;;;;;-128.00;-1.00;-1.00;101784;1251;1002820;-67
2023/01/19 01:19:07;;;;;;;5.20;3.40;;;;;;;-128.00;-1.00;-1.00;101861;1251;1002157;-68
2023/01/19 01:21:36;;;;;;;7.50;3.50;;;;;;;-128.00;-1.00;-1.00;101915;1251;1002284;-68
2023/01/19 01:24:03;;;;;;;9.90;4.00;;;;;;;-128.00;-1.00;-1.00;101671;1257;1010782;-66
2023/01/19 01:26:30;;;;;;;6.40;3.80;;;;;;;-128.00;-1.00;-1.00;101887;1254;1002199;-63
2023/01/19 01:28:58;;;;;;;3.70;3.30;;;;;;;-128.00;-1.00;-1.00;101901;1256;1002893;-65
2023/01/19 01:31:25;;;;;;;10.20;4.10;;;;;;;-128.00;-1.00;-1.00;101792;1253;1002922;-66
2023/01/19 01:33:52;;;;;;;7.40;3.70;;;;;;;-128.00;-1.00;-1.00;101797;1256;1002722;-65
2023/01/19 01:36:19;;;;;;;6.60;3.70;;;;;;;-128.00;-1.00;-1.00;101840;1251;1002426;-66
2023/01/19 01:38:46;;;;;;;7.00;4.20;;;;;;;-128.00;-1.00;-1.00;101857;1251;1004179;-61
2023/01/19 01:41:13;;;;;;;7.00;3.40;;;;;;;-128.00;-1.00;-1.00;101826;1251;1003127;-65
2023/01/19 01:43:57;;;;;;;6.30;3.90;;;;;;;-128.00;-1.00;-1.00;101916;1253;1003698;-69
2023/01/19 01:46:25;;;;;;;7.70;4.00;;;;;;;-128.00;-1.00;-1.00;101903;1256;1015525;-67
2023/01/19 01:49:01;;;;;;;7.00;3.20;;;;;;;-128.00;-1.00;-1.00;101820;1251;1002911;-65
2023/01/19 01:51:40;;;;;;;8.00;3.40;;;;;;;-128.00;-1.00;-1.00;101790;1254;1011285;-66
2023/01/19 01:54:20;;;;;;;6.50;3.00;;;;;;;-128.00;-1.00;-1.00;101871;1251;1013809;-66
2023/01/19 01:56:50;;;;;;;6.30;3.00;;;;;;;-128.00;-1.00;-1.00;101815;1251;1014100;-65
2023/01/19 01:59:28;;;;;;;5.30;2.90;;;;;;;-128.00;-1.00;-1.00;101912;1254;1013407;-67
2023/01/19 02:04:53;;;;;;;4.30;2.60;;;;;;;-128.00;-1.00;-1.00;101843;1251;1011724;-66
2023/01/19 02:13:32;;;;;;;7.30;3.00;;;;;;;-128.00;-1.00;-1.00;101826;1256;1017055;-66
2023/01/19 02:16:01;;;;;;;7.90;2.70;;;;;;;-128.00;-1.00;-1.00;101874;1259;1010722;-65
2023/01/19 02:18:29;;;;;;;7.00;3.50;;;;;;;-128.00;-1.00;-1.00;101797;1256;1010894;-67
2023/01/19 02:21:17;;;;;;;4.50;2.70;;;;;;;-128.00;-1.00;-1.00;101991;1257;1003184;-65
2023/01/19 02:23:49;;;;;;;6.70;2.40;;;;;;;-128.00;-1.00;-1.00;101825;1251;1015169;-66
2023/01/19 02:26:24;;;;;;;4.90;2.60;;;;;;;-128.00;-1.00;-1.00;101873;1256;1015530;-64
2023/01/19 02:28:56;;;;;;;5.00;2.40;;;;;;;-128.00;-1.00;-1.00;101831;1251;1010808;-64
2023/01/19 02:31:23;;;;;;;5.10;2.70;;;;;;;-128.00;-1.00;-1.00;101783;1251;1010857;-65
2023/01/19 02:33:51;;;;;;;6.50;3.00;;;;;;;-128.00;-1.00;-1.00;101921;1251;1003175;-65
2023/01/19 02:36:21;;;;;;;3.90;3.20;;;;;;;-128.00;-1.00;-1.00;101836;1251;1003252;-64
2023/01/19 02:38:48;;;;;;;7.50;3.70;;;;;;;-128.00;-1.00;-1.00;101840;1251;1014323;-64
2023/01/19 02:41:18;;;;;;;5.90;3.20;;;;;;;-128.00;-1.00;-1.00;101755;1251;1003833;-65
2023/01/19 02:43:46;;;;;;;7.70;3.30;;;;;;;-128.00;-1.00;-1.00;101901;1251;1014642;-65
2023/01/19 02:46:14;;;;;;;6.30;3.40;;;;;;;-128.00;-1.00;-1.00;101953;1251;1003104;-67
2023/01/19 02:48:41;;;;;;;4.80;3.30;;;;;;;-128.00;-1.00;-1.00;101858;1254;1003797;-66
2023/01/19 02:51:29;;;;;;;7.10;3.30;;;;;;;-128.00;-1.00;-1.00;101756;1251;1002867;-67
2023/01/19 02:54:15;;;;;;;;;;;;;;;-128.00;-1.00;-1.00;101836;1251;1010624;-66
2023/01/19 02:56:49;;;;;;;6.90;3.50;;;;;;;-128.00;-1.00;-1.00;101809;1251;1011829;-64
2023/01/19 02:59:57;;;;;;;8.10;3.70;;;;;;;-128.00;-1.00;-1.00;101872;1251;1017889;-65
2023/01/19 03:02:40;;;;;;;5.70;3.50;;;;;;;-128.00;-1.00;-1.00;101869;1251;1013022;-65
2023/01/19 03:05:29;;;;;;;8.30;3.60;;;;;;;-128.00;-1.00;-1.00;101856;1256;1016007;-67
2023/01/19 03:08:05;;;;;;;4.90;3.40;;;;;;;-128.00;-1.00;-1.00;101932;1251;1014919;-64
2023/01/19 03:10:41;;;;;;;6.20;3.70;;;;;;;-128.00;-1.00;-1.00;101975;1251;1011689;-63
2023/01/19 03:13:51;;;;;;;7.00;3.60;;;;;;;-128.00;-1.00;-1.00;101790;1254;1013360;-67
2023/01/19 03:16:39;;;;;;;4.80;3.10;;;;;;;-128.00;-1.00;-1.00;101762;1256;1015304;-69
2023/01/19 03:19:08;;;;;;;6.10;3.10;;;;;;;-128.00;-1.00;-1.00;101792;1254;1013634;-64
2023/01/19 03:21:36;;;;;;;4.00;2.70;;;;;;;-128.00;-1.00;-1.00;101796;1254;1010670;-67
2023/01/19 03:24:04;;;;;;;8.00;3.10;;;;;;;-128.00;-1.00;-1.00;101788;1254;1003596;-65
2023/01/19 03:26:36;;;;;;;5.30;3.20;;;;;;;-128.00;-1.00;-1.00;101848;1254;1013082;-65
2023/01/19 03:29:03;;;;;;;5.70;3.00;;;;;;;-128.00;-1.00;-1.00;101916;1254;1016249;-61
2023/01/19 03:31:30;;;;;;;2.80;2.00;;;;;;;-128.00;-1.00;-1.00;101868;1254;1003561;-61
2023/01/19 03:33:59;;;;;;;;;;;;;;;-128.00;-1.00;-1.00;101791;1253;1002778;-61
2023/01/19 03:36:40;;;;;;;8.00;2.80;;;;;;;-128.00;-1.00;-1.00;101858;1253;1010998;-60
2023/01/19 03:39:08;;;;;;;5.40;3.00;;;;;;;-128.00;-1.00;-1.00;101782;1254;1013180;-61
2023/01/19 03:41:36;;;;;;;6.20;2.70;;;;;;;-128.00;-1.00;-1.00;101840;1254;1002883;-62
2023/01/19 03:44:05;;;;;;;;;;;;;;;-128.00;-1.00;-1.00;101846;1254;1002229;-63
2023/01/19 03:46:32;;;;;;;8.90;3.40;;;;;;;-128.00;-1.00;-1.00;101700;1253;1011041;-61
2023/01/19 03:48:59;;;;;;;5.80;3.00;;;;;;;-128.00;-1.00;-1.00;101733;1257;1003077;-62
2023/01/19 03:51:26;;;;;;;7.10;3.10;;;;;;;-128.00;-1.00;-1.00;101816;1254;1002661;-65
2023/01/19 03:53:53;;;;;;;11.60;3.10;;;;;;;-128.00;-1.00;-1.00;101762;1254;1002409;-64
2023/01/19 03:56:22;;;;;;;5.80;3.00;;;;;;;-128.00;-1.00;-1.00;101762;1253;1004148;-63
2023/01/19 03:58:49;;;;;;;8.90;2.90;;;;;;;-128.00;-1.00;-1.00;101841;1254;1011030;-64
2023/01/19 04:01:19;;;;;;;3.40;2.80;;;;;;;-128.00;-1.00;-1.00;101790;1254;1003840;-65
2023/01/19 04:03:47;;;;;;;9.20;2.70;;;;;;;-128.00;-1.00;-1.00;101894;1256;1013214;-64
2023/01/19 04:06:14;;;;;;;3.70;3.00;;;;;;;-128.00;-1.00;-1.00;101791;1254;1002527;-65
2023/01/19 04:08:41;;;;;;;7.10;2.80;;;;;;;-128.00;-1.00;-1.00;101809;1254;1002968;-65
2023/01/19 04:11:08;;;;;;;3.00;2.50;;;;;;;-128.00;-1.00;-1.00;101679;1254;1002928;-66
2023/01/19 04:13:35;;;;;;;3.60;2.70;;;;;;;-128.00;-1.00;-1.00;101882;1257;1003540;-63
2023/01/19 04:16:03;;;;;;;3.10;2.40;;;;;;;-128.00;-1.00;-1.00;101834;1254;1003838;-65
2023/01/19 04:18:31;;;;;;;4.00;2.90;;;;;;;-128.00;-1.00;-1.00;101778;1254;1004019;-64
2023/01/19 04:21:05;;;;;;;2.30;2.10;;;;;;;-128.00;-1.00;-1.00;101811;1256;1015976;-66
2023/01/19 04:23:32;;;;;;;6.50;2.30;;;;;;;-128.00;-1.00;-1.00;101879;1254;1010027;-67
2023/01/19 04:26:01;;;;;;;4.40;2.50;;;;;;;-128.00;-1.00;-1.00;101714;1254;1003037;-64
2023/01/19 04:28:29;;;;;;;3.30;2.50;;;;;;;-128.00;-1.00;-1.00;101750;1254;1015644;-65
2023/01/19 04:30:56;;;;;;;2.70;2.50;;;;;;;-128.00;-1.00;-1.00;101835;1254;1003367;-65
2023/01/19 04:33:23;;;;;;;2.80;2.60;;;;;;;-128.00;-1.00;-1.00;101803;1254;1003195;-65
2023/01/19 04:35:51;;;;;;;2.50;2.30;;;;;;;-128.00;-1.00;-1.00;101761;1257;1003071;-66
2023/01/19 04:38:21;;;;;;;4.50;2.50;;;;;;;-128.00;-1.00;-1.00;101796;1254;1011037;-65
2023/01/19 04:40:49;;;;;;;2.40;2.20;;;;;;;-128.00;-1.00;-1.00;101688;1254;1002724;-64
2023/01/19 04:43:17;;;;;;;;;;;;;;;-128.00;-1.00;-1.00;101785;1254;1002405;-64
2023/01/19 04:45:45;;;;;;;2.80;2.60;;;;;;;-128.00;-1.00;-1.00;101850;1253;1014780;-63
2023/01/19 04:48:13;;;;;;;2.70;2.10;;;;;;;-128.00;-1.00;-1.00;101809;1254;1010627;-62
2023/01/19 04:50:40;;;;;;;3.60;2.50;;;;;;;-128.00;-1.00;-1.00;101702;1254;1002717;-63
2023/01/19 04:53:07;;;;;;;;;;;;;;;-128.00;-1.00;-1.00;101914;1254;1004408;-64
2023/01/19 04:55:36;;;;;;;2.50;2.30;;;;;;;-128.00;-1.00;-1.00;101673;1254;1002880;-63
2023/01/19 04:58:03;;;;;;;2.90;2.60;;;;;;;-128.00;-1.00;-1.00;101821;1256;1014335;-62
2023/01/19 05:00:30;;;;;;;2.00;1.90;;;;;;;-128.00;-1.00;-1.00;101815;1254;1002567;-63
2023/01/19 05:02:57;;;;;;;2.30;2.10;;;;;;;-128.00;-1.00;-1.00;101805;1254;1003467;-63
2023/01/19 05:05:26;;;;;;;2.10;2.00;;;;;;;-128.00;-1.00;-1.00;101884;1254;1002754;-66
2023/01/19 05:07:53;;;;;;;4.00;1.60;;;;;;;-128.00;-1.00;-1.00;101929;1256;1003372;-63
2023/01/19 05:10:20;;;;;;;1.90;1.80;;;;;;;-128.00;-1.00;-1.00;101712;1254;1002923;-66
2023/01/19 05:12:48;;;;;;;1.80;1.70;;;;;;;-128.00;-1.00;-1.00;101895;1254;1003809;-64
2023/01/19 05:15:15;;;;;;;2.40;1.60;;;;;;;-128.00;-1.00;-1.00;101835;1254;1002991;-63
2023/01/19 05:17:43;;;;;;;2.00;1.90;;;;;;;-128.00;-1.00;-1.00;101750;1254;1002549;-64
2023/01/19 05:20:10;;;;;;;2.20;1.70;;;;;;;-128.00;-1.00;-1.00;102098;1254;1002531;-63
2023/01/19 05:22:40;;;;;;;6.00;2.00;;;;;;;-128.00;-1.00;-1.00;102253;1253;1012987;-61
2023/01/19 05:25:08;;;;;;;1.90;1.80;;;;;;;-128.00;-1.00;-1.00;101858;1254;1003778;-61
2023/01/19 05:27:36;;;;;;;1.60;1.50;;;;;;;-128.00;-1.00;-1.00;102141;1254;1005635;-63
2023/01/19 05:30:04;;;;;;;1.70;1.60;;;;;;;-128.00;-1.00;-1.00;102031;1256;1004008;-69
2023/01/19 05:32:31;;;;;;;2.00;1.90;;;;;;;-128.00;-1.00;-1.00;102006;1254;1013192;-67
2023/01/19 05:34:58;;;;;;;1.60;1.50;;;;;;;-128.00;-1.00;-1.00;101883;1254;1002913;-67
2023/01/19 05:37:25;;;;;;;1.60;1.50;;;;;;;-128.00;-1.00;-1.00;101773;1252;1003871;-69
2023/01/19 05:39:53;;;;;;;1.50;1.40;;;;;;;-128.00;-1.00;-1.00;101736;1256;1002397;-68
2023/01/19 05:42:20;;;;;;;1.60;1.50;;;;;;;-128.00;-1.00;-1.00;101744;1256;1002639;-68
2023/01/19 05:44:48;;;;;;;1.30;1.30;;;;;;;-128.00;-1.00;-1.00;101880;1253;1003590;-70
2023/01/19 05:47:15;;;;;;;1.60;1.50;;;;;;;-128.00;-1.00;-1.00;101830;1253;1002712;-62
2023/01/19 05:49:42;;;;;;;2.50;1.90;;;;;;;-128.00;-1.00;-1.00;101934;1254;1002803;-62
2023/01/19 05:52:09;;;;;;;2.00;1.60;;;;;;;-128.00;-1.00;-1.00;101838;1252;1002958;-62
2023/01/19 05:54:39;;;;;;;1.90;1.80;;;;;;;-128.00;-1.00;-1.00;101961;1256;1004560;-62
2023/01/19 05:57:06;;;;;;;2.10;2.00;;;;;;;-128.00;-1.00;-1.00;102019;1254;1012604;-59
2023/01/19 05:59:34;;;;;;;2.30;2.10;;;;;;;-128.00;-1.00;-1.00;101976;1256;1002556;-61
2023/01/19 06:02:01;;;;;;;2.20;2.10;;;;;;;-128.00;-1.00;-1.00;102043;1259;1002684;-60
2023/01/19 06:04:29;;;;;;;2.70;2.10;;;;;;;-128.00;-1.00;-1.00;101999;1257;1004834;-60
2023/01/19 06:06:56;;;;;;;2.80;2.60;;;;;;;-128.00;-1.00;-1.00;101972;1254;1003675;-61
2023/01/19 06:09:23;;;;;;;3.10;2.80;;;;;;;-128.00;-1.00;-1.00;102101;1256;1003857;-62
2023/01/19 06:11:53;;;;;;;3.10;2.90;;;;;;;-128.00;-1.00;-1.00;101772;1257;1003395;-60
2023/01/19 06:14:20;;;;;;;2.70;2.50;;;;;;;-128.00;-1.00;-1.00;101860;1251;1011367;-60
2023/01/19 06:16:47;;;;;;;2.40;2.20;;;;;;;-128.00;-1.00;-1.00;102186;1251;1003842;-61
2023/01/19 06:19:15;;;;;;;2.80;2.60;;;;;;;-128.00;-1.00;-1.00;101927;1251;1002908;-60
2023/01/19 06:21:48;;;;;;;3.90;2.90;;;;;;;-128.00;-1.00;-1.00;102269;1251;1002411;-60
2023/01/19 06:24:15;;;;;;;3.10;2.90;;;;;;;-128.00;-1.00;-1.00;101819;1251;1012571;-61
2023/01/19 06:26:42;;;;;;;2.40;2.20;;;;;;;-128.00;-1.00;-1.00;101756;1251;1002719;-60
2023/01/19 06:29:10;;;;;;;2.70;2.50;;;;;;;-128.00;-1.00;-1.00;101741;1256;1002363;-61
2023/01/19 06:31:38;;;;;;;2.60;2.40;;;;;;;-128.00;-1.00;-1.00;101838;1256;1012713;-60
2023/01/19 06:34:06;;;;;;;;;;;;;;;-128.00;-1.00;-1.00;101870;1259;1003490;-60
2023/01/19 06:36:33;;;;;;;2.90;2.70;;;;;;;-128.00;-1.00;-1.00;101748;1251;1002654;-62
2023/01/19 06:39:04;;;;;;;2.60;2.40;;;;;;;-128.00;-1.00;-1.00;101792;1251;1002567;-61
2023/01/19 06:41:32;;;;;;;2.20;2.10;;;;;;;-128.00;-1.00;-1.00;101872;1251;1014560;-60
2023/01/19 06:44:00;;;;;;;2.50;2.30;;;;;;;-128.00;-1.00;-1.00;101815;1255;1013127;-60
2023/01/19 06:46:27;;;;;;;2.50;2.30;;;;;;;-128.00;-1.00;-1.00;101825;1251;1004040;-60
2023/01/19 06:48:54;;;;;;;2.30;2.20;;;;;;;-128.00;-1.00;-1.00;101893;1251;1002791;-62
2023/01/19 06:51:22;;;;;;;2.70;2.50;;;;;;;-128.00;-1.00;-1.00;101859;1254;1002836;-61
2023/01/19 06:53:49;;;;;;;3.70;3.40;;;;;;;-128.00;-1.00;-1.00;101841;1251;1002865;-61
2023/01/19 06:56:17;;;;;;;3.50;3.20;;;;;;;-128.00;-1.00;-1.00;101968;1252;1004842;-61
2023/01/19 06:58:46;;;;;;;4.20;3.80;;;;;;;-128.00;-1.00;-1.00;101847;1251;1002901;-66
2023/01/19 07:01:13;;;;;;;4.00;3.70;;;;;;;-128.00;-1.00;-1.00;101981;1257;1016109;-61
2023/01/19 07:03:40;;;;;;;8.40;4.10;;;;;;;-128.00;-1.00;-1.00;101973;1256;1003963;-65
2023/01/19 07:06:08;;;;;;;4.00;3.70;;;;;;;-128.00;-1.00;-1.00;102003;1251;1003266;-61
2023/01/19 07:08:35;;;;;;;4.30;3.90;;;;;;;-128.00;-1.00;-1.00;101910;1251;1002744;-63
2023/01/19 07:11:07;;;;;;;3.90;3.60;;;;;;;-128.00;-1.00;-1.00;101912;1257;1004120;-63
2023/01/19 07:13:54;;;;;;;4.90;3.90;;;;;;;-128.00;-1.00;-1.00;102007;1256;1014916;-61
2023/01/19 07:16:21;;;;;;;3.70;3.40;;;;;;;-128.00;-1.00;-1.00;101853;1254;1004947;-62
2023/01/19 07:18:49;;;;;;;4.20;3.30;;;;;;;-128.00;-1.00;-1.00;101788;1256;1002705;-60
2023/01/19 07:21:17;;;;;;;3.30;3.10;;;;;;;-128.00;-1.00;-1.00;101954;1257;1004468;-60
2023/01/19 07:23:47;;;;;;;4.60;2.80;;;;;;;-128.00;-1.00;-1.00;102241;1251;1002816;-60
2023/01/19 07:26:17;;;;;;;2.70;2.50;;;;;;;-128.00;-1.00;-1.00;101885;1257;1014580;-60
2023/01/19 07:28:44;;;;;;;2.80;2.60;;;;;;;-128.00;-1.00;-1.00;102003;1251;1010033;-60
2023/01/19 07:31:14;;;;;;;4.20;2.80;;;;;;;-128.00;-1.00;-1.00;102041;1251;1011213;-63
2023/01/19 07:33:41;;;;;;;;;;;;;;;-128.00;-1.00;-1.00;104065;1252;1002972;-58
2023/01/19 07:36:09;;;;;;;2.50;2.40;;;;;;;-128.00;-1.00;-1.00;101616;1258;1003053;-59
2023/01/19 07:38:36;;;;;;;2.70;2.50;;;;;;;-128.00;-1.00;-1.00;101770;1257;1004178;-60
2023/01/19 07:41:04;;;;;;;1.90;1.80;;;;;;;-128.00;-1.00;-1.00;101673;1257;1002422;-58
2023/01/19 12:02:56;;;;;;;6.40;4.60;;;;;;;8.28;100.00;98668.46;102988;1290;601229;-59
2023/01/19 12:05:26;;;;;;;11.10;5.30;;;;;;;9.39;100.00;98675.05;103702;1272;61242;-61
2023/01/19 12:07:53;;;;;;;9.20;5.40;;;;;;;9.63;100.00;98689.85;103925;1268;60321;-60
2023/01/19 12:10:27;;;;;;;13.20;6.40;;;;;;;-128.00;-1.00;-1.00;100338;1270;1060404;-60
2023/01/19 12:12:54;;;;;;;14.70;6.20;;;;;;;-128.00;-1.00;-1.00;99882;1266;1056819;-61
2023/01/19 12:15:43;;;;;;;13.10;5.40;;;;;;;-128.00;-1.00;-1.00;100096;1272;1003405;-60
2023/01/19 12:18:32;;;;;;;11.00;5.30;;;;;;;-128.00;-1.00;-1.00;100252;1280;1043783;-59
2023/01/19 12:20:59;;;;;;;13.90;6.20;;;;;;;-128.00;-1.00;-1.00;100497;1278;1047313;-59
2023/01/19 12:23:36;;;;;;;13.50;6.00;;;;;;;-128.00;-1.00;-1.00;100411;1262;1060764;-62
2023/01/19 12:26:15;;;;;;;15.40;6.50;;;;;;;-128.00;-1.00;-1.00;100512;1263;1059924;-61
2023/01/19 12:28:46;;;;;;;12.90;5.70;;;;;;;-128.00;-1.00;-1.00;100288;1267;1061594;-61
2023/01/19 12:31:18;;;;;;;14.30;5.30;;;;;;;-128.00;-1.00;-1.00;100535;1263;1043753;-62
2023/01/19 12:33:45;;;;;;;10.70;5.10;;;;;;;-128.00;-1.00;-1.00;100777;1263;1047069;-61
2023/01/19 12:36:16;;;;;;;13.40;4.70;;;;;;;-128.00;-1.00;-1.00;100651;1273;1002772;-61
2023/01/19 12:38:45;;;;;;;12.20;5.20;;;;;;;-128.00;-1.00;-1.00;100273;1270;1058042;-61
2023/01/19 12:41:34;;;;;;;18.90;5.50;;;;;;;-128.00;-1.00;-1.00;101115;1253;1062096;-64
2023/01/19 12:44:11;;;;;;;17.00;5.30;;;;;;;-128.00;-1.00;-1.00;100742;1262;1041396;-61
2023/01/19 12:46:41;;;;;;;15.00;6.40;;;;;;;-128.00;-1.00;-1.00;100819;1265;1049292;-62
2023/01/19 12:49:28;;;;;;;14.60;6.10;;;;;;;-128.00;-1.00;-1.00;100681;1261;1062007;-60
2023/01/19 12:52:27;;;;;;;17.20;5.40;;;;;;;-128.00;-1.00;-1.00;101226;1260;1059405;-61
2023/01/19 12:55:12;;;;;;;12.50;6.20;;;;;;;-128.00;-1.00;-1.00;100785;1260;1058324;-61
2023/01/19 12:57:48;;;;;;;15.60;5.50;;;;;;;-128.00;-1.00;-1.00;100797;1255;1042131;-59
2023/01/19 13:00:21;;;;;;;13.20;5.50;;;;;;;-128.00;-1.00;-1.00;101373;1262;1050361;-59
2023/01/19 13:02:53;;;;;;;17.30;5.20;;;;;;;-128.00;-1.00;-1.00;101147;1257;1062201;-59
2023/01/19 13:05:29;;;;;;;12.50;5.40;;;;;;;-128.00;-1.00;-1.00;101167;1263;1056753;-59
2023/01/19 13:08:05;;;;;;;10.20;5.40;;;;;;;-128.00;-1.00;-1.00;101102;1261;1060466;-58
2023/01/19 13:10:58;;;;;;;9.30;4.90;;;;;;;-128.00;-1.00;-1.00;100796;1257;1043600;-60
2023/01/19 13:13:26;;;;;;;19.40;5.30;;;;;;;-128.00;-1.00;-1.00;101173;1258;1047815;-59
2023/01/19 13:15:54;;;;;;;12.90;5.10;;;;;;;-128.00;-1.00;-1.00;100964;1263;1004027;-59
2023/01/19 13:18:31;;;;;;;12.70;5.20;;;;;;;-128.00;-1.00;-1.00;101069;1261;1003098;-61
2023/01/19 13:20:58;;;;;;;24.20;5.90;;;;;;;-128.00;-1.00;-1.00;100921;1263;1060640;-60
2023/01/19 13:23:50;;;;;;;13.90;5.20;;;;;;;-128.00;-1.00;-1.00;100888;1263;1005322;-60
2023/01/19 13:26:19;;;;;;;10.20;5.20;;;;;;;-128.00;-1.00;-1.00;101273;1257;1046867;-61
2023/01/19 13:28:52;;;;;;;20.30;5.90;;;;;;;-128.00;-1.00;-1.00;101134;1256;1061372;-60
2023/01/19 13:31:19;;;;;;;15.90;6.10;;;;;;;-128.00;-1.00;-1.00;101539;1257;1058099;-57
2023/01/19 13:33:54;;;;;;;17.10;5.30;;;;;;;-128.00;-1.00;-1.00;101660;1253;1003033;-59
2023/01/19 13:36:29;;;;;;;16.80;5.60;;;;;;;-128.00;-1.00;-1.00;101253;1257;1041556;-59
2023/01/19 13:38:58;;;;;;;17.10;5.10;;;;;;;-128.00;-1.00;-1.00;101066;1259;1049483;-59
2023/01/19 13:41:28;;;;;;;15.20;5.50;;;;;;;-128.00;-1.00;-1.00;100880;1257;1059562;-59
2023/01/19 13:44:19;;;;;;;18.60;6.10;;;;;;;-128.00;-1.00;-1.00;100938;1254;1055571;-58
2023/01/19 13:46:47;;;;;;;16.20;5.80;;;;;;;-128.00;-1.00;-1.00;101006;1266;1060807;-56
2023/01/19 13:49:30;;;;;;;16.20;5.80;;;;;;;-128.00;-1.00;-1.00;101060;1254;1004040;-58
2023/01/19 13:52:20;;;;;;;14.30;5.10;;;;;;;-128.00;-1.00;-1.00;101091;1265;1048397;-57
2023/01/19 13:54:47;;;;;;;16.90;6.20;;;;;;;-128.00;-1.00;-1.00;101271;1257;1063072;-59
2023/01/19 13:57:25;;;;;;;16.50;5.00;;;;;;;-128.00;-1.00;-1.00;101030;1257;1003960;-56
2023/01/19 14:00:13;;;;;;;15.40;4.80;;;;;;;-128.00;-1.00;-1.00;101185;1256;1061763;-56
2023/01/19 14:02:53;;;;;;;16.40;5.30;;;;;;;-128.00;-1.00;-1.00;101146;1267;1041786;-58
2023/01/19 14:05:27;;;;;;;17.50;5.40;;;;;;;-128.00;-1.00;-1.00;101160;1258;1049201;-60
2023/01/19 14:08:09;;;;;;;17.00;5.70;;;;;;;-128.00;-1.00;-1.00;101553;1258;1059675;-58
2023/01/19 14:10:44;;;;;;;20.60;5.70;;;;;;;-128.00;-1.00;-1.00;100935;1258;1056745;-57
2023/01/19 14:13:19;;;;;;;18.70;5.90;;;;;;;-128.00;-1.00;-1.00;101019;1259;1059100;-58
2023/01/19 14:15:47;;;;;;;13.60;5.40;;;;;;;-128.00;-1.00;-1.00;101029;1260;1045796;-58
2023/01/19 14:18:15;;;;;;;19.20;5.90;;;;;;;-128.00;-1.00;-1.00;100998;1261;1046333;-59
2023/01/19 14:21:17;;;;;;;18.70;6.40;;;;;;;-128.00;-1.00;-1.00;101477;1266;1003910;-58
2023/01/19 14:23:46;;;;;;;16.10;5.70;;;;;;;-128.00;-1.00;-1.00;101280;1257;1056865;-60
2023/01/19 14:26:40;;;;;;;17.40;5.60;;;;;;;-128.00;-1.00;-1.00;101153;1253;1059424;-59
2023/01/19 14:29:24;;;;;;;16.60;5.60;;;;;;;-128.00;-1.00;-1.00;101637;1251;1043411;-59
2023/01/19 14:32:13;;;;;;;17.30;5.60;;;;;;;-128.00;-1.00;-1.00;100830;1266;1048394;-60
2023/01/19 14:34:53;;;;;;;14.20;5.20;;;;;;;-128.00;-1.00;-1.00;101459;1254;1061440;-58
2023/01/19 14:37:20;;;;;;;16.60;6.00;;;;;;;-128.00;-1.00;-1.00;101061;1257;1056487;-58
2023/01/19 14:40:16;;;;;;;17.00;5.30;;;;;;;-128.00;-1.00;-1.00;101263;1257;1002929;-60
2023/01/19 14:42:54;;;;;;;21.50;5.10;;;;;;;-128.00;-1.00;-1.00;101067;1254;1042802;-62
2023/01/19 14:45:30;;;;;;;15.00;5.30;;;;;;;-128.00;-1.00;-1.00;100910;1257;1046562;-60
2023/01/19 14:47:58;;;;;;;16.00;5.60;;;;;;;-128.00;-1.00;-1.00;100930;1267;1061965;-64
2023/01/19 14:50:27;;;;;;;10.20;4.30;;;;;;;-128.00;-1.00;-1.00;100906;1259;1056150;-60
2023/01/19 14:53:15;;;;;;;19.70;5.50;;;;;;;-128.00;-1.00;-1.00;100893;1252;1003440;-61
2023/01/19 14:55:48;;;;;;;13.10;5.90;;;;;;;-128.00;-1.00;-1.00;100876;1260;1041235;-59
2023/01/19 14:58:17;;;;;;;14.40;5.60;;;;;;;-128.00;-1.00;-1.00;100907;1259;1048301;-60
2023/01/19 15:00:44;;;;;;;19.40;5.60;;;;;;;-128.00;-1.00;-1.00;101177;1256;1061209;-59
2023/01/19 15:03:12;;;;;;;15.60;5.90;;;;;;;-128.00;-1.00;-1.00;100935;1266;1003335;-60
2023/01/19 15:05:42;;;;;;;14.50;5.50;;;;;;;-128.00;-1.00;-1.00;101267;1251;1003739;-60
2023/01/19 15:08:29;;;;;;;14.20;5.30;;;;;;;-128.00;-1.00;-1.00;101109;1262;1042987;-59
2023/01/19 15:10:56;;;;;;;13.80;5.50;;;;;;;-128.00;-1.00;-1.00;101111;1257;1048187;-59
2023/01/19 15:13:24;;;;;;;;;;;;;;;-128.00;-1.00;-1.00;100914;1259;1004790;-61
2023/01/19 15:15:52;;;;;;;14.00;4.70;;;;;;;-128.00;-1.00;-1.00;100940;1268;1003876;-60
2023/01/19 15:18:24;;;;;;;16.90;5.20;;;;;;;-128.00;-1.00;-1.00;101083;1258;1003994;-60
2023/01/19 15:20:53;;;;;;;16.20;5.60;;;;;;;-128.00;-1.00;-1.00;101272;1256;1040645;-61
2023/01/19 15:23:21;;;;;;;21.20;5.20;;;;;;;-128.00;-1.00;-1.00;100990;1256;1047052;-61
2023/01/19 15:25:48;;;;;;;21.70;5.30;;;;;;;-128.00;-1.00;-1.00;101073;1256;1002455;-59
2023/01/19 15:28:16;;;;;;;20.90;6.70;;;;;;;-128.00;-1.00;-1.00;101052;1253;1005006;-61
2023/01/19 15:30:44;;;;;;;11.30;4.50;;;;;;;-128.00;-1.00;-1.00;100938;1256;1060841;-60
2023/01/19 15:33:23;;;;;;;11.50;5.20;;;;;;;-128.00;-1.00;-1.00;101240;1259;1003587;-60
2023/01/19 15:35:51;;;;;;;18.70;6.60;;;;;;;-128.00;-1.00;-1.00;101083;1271;1048402;-62
2023/01/19 15:38:18;;;;;;;12.80;5.20;;;;;;;-128.00;-1.00;-1.00;101194;1260;1003159;-61
2023/01/19 15:40:46;;;;;;;11.80;4.50;;;;;;;-128.00;-1.00;-1.00;101221;1252;1003978;-60
2023/01/19 15:43:17;;;;;;;17.00;5.30;;;;;;;-128.00;-1.00;-1.00;100878;1256;1059796;-60
2023/01/19 15:45:56;;;;;;;13.20;4.80;;;;;;;-128.00;-1.00;-1.00;101398;1254;1002896;-60
2023/01/19 15:48:23;;;;;;;20.10;6.10;;;;;;;-128.00;-1.00;-1.00;101324;1257;1046806;-61
2023/01/19 15:50:50;;;;;;;10.60;4.60;;;;;;;-128.00;-1.00;-1.00;100945;1258;1002548;-59
2023/01/19 15:53:18;;;;;;;14.60;5.50;;;;;;;-128.00;-1.00;-1.00;100851;1257;1003085;-60
2023/01/19 15:55:50;;;;;;;13.00;5.00;;;;;;;-128.00;-1.00;-1.00;101188;1258;1061491;-59
2023/01/19 15:58:19;;;;;;;12.50;4.90;;;;;;;-128.00;-1.00;-1.00;101019;1262;1041358;-60
2023/01/19 16:00:54;;;;;;;14.80;4.60;;;;;;;-128.00;-1.00;-1.00;101015;1251;1047186;-59
2023/01/19 16:03:22;;;;;;;13.30;5.70;;;;;;;-128.00;-1.00;-1.00;101394;1266;1060873;-59
2023/01/19 16:05:50;;;;;;;18.50;4.70;;;;;;;-128.00;-1.00;-1.00;101011;1260;1003189;-61